createdAt,value
2018-11-27T15:28:39.371Z,41.74
2018-11-27T15:33:42.737Z,41.95
2018-11-27T15:38:46.083Z,42.29
2018-11-27T15:43:49.442Z,42.33
2018-11-27T15:48:52.890Z,42.31
2018-11-27T15:53:56.338Z,41.80
2018-11-27T15:58:59.693Z,42.39
2018-11-27T16:04:03.039Z,42.34
2018-11-27T16:09:10.060Z,42.48
2018-11-27T16:14:13.405Z,42.97
2018-11-27T16:19:16.726Z,43.09
2018-11-27T16:24:20.174Z,43.06
2018-11-27T16:29:23.499Z,43.45
2018-11-27T16:34:26.918Z,43.54
2018-11-27T16:39:30.250Z,43.61
2018-11-27T16:44:33.596Z,43.39
2018-11-27T16:49:37.287Z,43.41
2018-11-27T16:54:40.660Z,43.86
2018-11-27T16:59:44.534Z,43.73
2018-11-27T17:04:47.878Z,43.84
2018-11-27T17:09:51.311Z,42.97
2018-11-27T17:14:54.735Z,42.72
2018-11-27T17:19:58.059Z,42.42
2018-11-27T17:25:01.425Z,42.62
2018-11-27T17:30:11.105Z,42.45
2018-11-27T18:03:23.511Z,42.47
2018-11-27T18:08:26.853Z,42.87
2018-11-27T18:13:30.203Z,42.11
2018-11-27T18:18:33.605Z,42.56
2018-11-27T18:23:36.987Z,42.91
2018-11-27T18:28:40.296Z,42.92
2018-11-27T18:33:43.620Z,43.13
2018-11-27T18:38:46.954Z,43.33
2018-11-27T18:43:50.315Z,43.53
2018-11-27T18:48:54.554Z,43.63
2018-11-27T18:53:57.141Z,43.62
2018-11-27T18:59:00.509Z,43.99
2018-11-27T19:04:03.879Z,44.42
2018-11-27T19:09:09.587Z,44.32
2018-11-27T19:14:12.915Z,44.01
2018-11-27T19:47:26.382Z,42.41
2018-11-27T19:52:29.727Z,42.77
2018-11-27T19:57:34.522Z,42.90
2018-11-27T20:02:39.495Z,42.83
2018-11-27T20:07:42.875Z,42.94
2018-11-27T20:12:46.251Z,42.85
2018-11-27T20:17:50.326Z,43.08
2018-11-27T20:22:54.451Z,43.59
2018-11-27T20:27:57.793Z,43.54
2018-11-27T20:33:02.802Z,44.08
2018-11-27T20:38:07.875Z,44.31
2018-11-27T20:43:11.222Z,44.17
2018-11-27T20:48:16.126Z,44.58
2018-11-27T20:53:19.447Z,44.88
2018-11-27T20:58:22.791Z,44.50
2018-11-27T21:03:26.111Z,45.08
2018-11-27T21:08:29.508Z,45.21
2018-11-27T21:13:32.178Z,45.26
2018-11-27T21:18:35.512Z,45.03
2018-11-27T21:23:38.826Z,45.41
2018-11-27T21:28:42.156Z,45.43
2018-11-27T21:33:45.608Z,45.65
2018-11-27T21:38:49.014Z,45.41
2018-11-27T21:43:52.362Z,45.87
2018-11-27T21:48:55.700Z,45.89
2018-11-27T21:53:59.035Z,45.72
2018-11-27T21:59:02.347Z,45.71
2018-11-27T22:04:05.699Z,46.03
2018-11-27T22:09:09.062Z,45.75
2018-11-27T22:14:12.967Z,45.78
2018-11-27T22:19:16.300Z,46.17
2018-11-27T22:24:19.627Z,45.92
2018-11-27T22:29:22.962Z,46.12
2018-11-27T22:34:26.303Z,46.25
2018-11-27T22:39:29.640Z,46.52
2018-11-27T22:44:32.958Z,46.47
2018-11-27T22:49:36.287Z,46.43
2018-11-27T22:54:39.623Z,46.26
2018-11-27T22:59:42.995Z,46.52
2018-11-27T23:04:46.325Z,46.47
2018-11-27T23:09:49.673Z,46.33
2018-11-27T23:14:52.999Z,46.67
2018-11-27T23:19:56.323Z,46.24
2018-11-27T23:24:59.667Z,46.86
2018-11-27T23:30:03.191Z,46.95
2018-11-27T23:35:06.797Z,46.65
2018-11-27T23:40:11.066Z,47.12
2018-11-27T23:45:17.277Z,47.02
2018-11-27T23:50:21.595Z,46.64
2018-11-27T23:55:24.935Z,46.72
